Time;durP1;ratioP1;P1;durP2;ratioP2;P2;SDS_P1;SDS_P2;PMS_P1;PMS_P2;Temp;Humidity;BMP_temperature;BMP_pressure;BME280_temperature;BME280_humidity;BME280_pressure;Samples;Min_cycle;Max_cycle;Signal;HPM_P1;HPM_P2
2022/01/01 00:00:36;;;;;;;7.87;4.17;;;;;;;;;;5015991;28;20026;-67
2022/01/01 00:03:02;;;;;;;7.90;3.63;;;;;;;;;;5015887;28;20029;-68
2022/01/01 00:05:29;;;;;;;14.10;4.90;;;;;;;;;;5015461;28;20022;-67
2022/01/01 00:07:57;;;;;;;6.57;3.83;;;;;;;;;;5015799;28;20053;-67
2022/01/01 00:10:24;;;;;;;11.70;5.10;;;;;;;;;;5015339;28;20025;-67
2022/01/01 00:12:51;;;;;;;8.67;4.30;;;;;;;;;;5010712;28;20029;-67
2022/01/01 00:15:19;;;;;;;10.67;3.87;;;;;;;;;;5010555;28;20495;-67
2022/01/01 00:17:46;;;;;;;17.50;4.53;;;;;;;;;;5010676;28;20459;-67
2022/01/01 00:20:13;;;;;;;14.63;5.07;;;;;;;;;;5010676;28;20025;-67
2022/01/01 00:22:41;;;;;;;11.93;3.37;;;;;;;;;;5014992;28;20040;-67
2022/01/01 00:25:08;;;;;;;12.43;3.20;;;;;;;;;;5015572;28;20045;-66
2022/01/01 00:27:35;;;;;;;9.90;3.93;;;;;;;;;;5015526;28;20025;-67
2022/01/01 00:30:02;;;;;;;12.63;2.70;;;;;;;;;;5015346;28;20121;-66
2022/01/01 00:32:28;;;;;;;4.67;2.70;;;;;;;;;;5015489;28;20034;-67
2022/01/01 00:34:55;;;;;;;6.33;2.40;;;;;;;;;;5010316;28;20030;-67
2022/01/01 00:37:22;;;;;;;7.87;3.60;;;;;;;;;;5009643;28;20076;-67
2022/01/01 00:39:49;;;;;;;11.90;4.60;;;;;;;;;;5010100;28;20033;-67
2022/01/01 00:42:15;;;;;;;9.33;3.30;;;;;;;;;;5010039;28;20088;-67
2022/01/01 00:44:42;;;;;;;11.67;2.97;;;;;;;;;;5013915;28;20088;-67
2022/01/01 00:47:09;;;;;;;9.37;3.37;;;;;;;;;;5015144;28;20022;-66
2022/01/01 00:49:36;;;;;;;5.07;2.97;;;;;;;;;;5014960;28;20385;-66
2022/01/01 00:52:03;;;;;;;7.47;3.93;;;;;;;;;;5014639;28;20415;-66
2022/01/01 00:54:30;;;;;;;5.73;2.50;;;;;;;;;;5014576;28;20030;-66
2022/01/01 00:56:57;;;;;;;6.43;3.17;;;;;;;;;;5010400;28;20045;-66
2022/01/01 00:59:24;;;;;;;13.47;4.03;;;;;;;;;;5009736;28;20034;-66
2022/01/01 01:01:51;;;;;;;15.03;3.47;;;;;;;;;;5009652;28;20052;-66
2022/01/01 01:04:18;;;;;;;8.70;4.13;;;;;;;;;;5009705;28;20030;-66
2022/01/01 01:06:44;;;;;;;10.63;4.37;;;;;;;;;;5012877;28;21226;-66
2022/01/01 01:09:11;;;;;;;7.87;3.30;;;;;;;;;;5014572;28;20029;-66
2022/01/01 01:11:43;;;;;;;7.77;3.60;;;;;;;;;;5014269;28;20083;-67
2022/01/01 01:14:18;;;;;;;8.13;2.67;;;;;;;;;;5014397;28;20041;-66
2022/01/01 01:16:46;;;;;;;8.07;3.53;;;;;;;;;;5014340;28;20100;-66
2022/01/01 01:19:13;;;;;;;16.07;4.60;;;;;;;;;;5010160;28;20116;-67
2022/01/01 01:21:39;;;;;;;14.47;3.93;;;;;;;;;;5009310;28;20022;-66
2022/01/01 01:24:06;;;;;;;8.10;3.27;;;;;;;;;;5009023;28;20539;-67
2022/01/01 01:26:33;;;;;;;6.37;2.70;;;;;;;;;;5009280;28;20108;-66
2022/01/01 01:29:02;;;;;;;11.93;4.17;;;;;;;;;;5012904;28;20611;-66
2022/01/01 01:31:30;;;;;;;11.40;4.60;;;;;;;;;;5014151;28;20042;-66
2022/01/01 01:33:57;;;;;;;8.80;5.10;;;;;;;;;;5014008;28;20050;-66
2022/01/01 01:36:23;;;;;;;9.90;4.63;;;;;;;;;;5014064;28;20032;-66
2022/01/01 01:38:50;;;;;;;8.47;4.63;;;;;;;;;;5014052;28;20061;-66
2022/01/01 01:41:17;;;;;;;14.53;5.03;;;;;;;;;;5009643;28;20045;-66
2022/01/01 01:43:46;;;;;;;14.90;5.60;;;;;;;;;;5008750;28;20032;-67
2022/01/01 01:46:14;;;;;;;14.83;4.20;;;;;;;;;;5009051;28;20033;-66
2022/01/01 01:48:43;;;;;;;12.23;4.57;;;;;;;;;;5008832;28;20033;-66
2022/01/01 01:51:11;;;;;;;10.50;4.77;;;;;;;;;;5012400;28;20026;-66
2022/01/01 01:53:39;;;;;;;20.90;6.63;;;;;;;;;;5013933;28;20029;-66
2022/01/01 01:56:06;;;;;;;12.60;5.97;;;;;;;;;;5012753;28;20025;-66
2022/01/01 01:58:34;;;;;;;11.13;5.20;;;;;;;;;;5013752;28;20425;-66
2022/01/01 02:03:46;;;;;;;6.38;2.67;;;;;;;;;;5008943;28;20034;-66
2022/01/01 02:06:13;;;;;;;8.67;3.80;;;;;;;;;;5008303;28;20708;-67
2022/01/01 02:08:40;;;;;;;6.07;3.47;;;;;;;;;;5008690;28;20026;-66
2022/01/01 02:11:07;;;;;;;10.13;3.20;;;;;;;;;;5008683;28;20030;-66
2022/01/01 02:13:46;;;;;;;7.10;3.47;;;;;;;;;;5012498;28;20045;-66
2022/01/01 02:16:30;;;;;;;12.37;4.40;;;;;;;;;;5013444;28;20028;-66
2022/01/01 02:18:57;;;;;;;7.37;2.87;;;;;;;;;;5013317;28;20480;-66
2022/01/01 02:21:24;;;;;;;9.17;3.10;;;;;;;;;;5013477;28;20427;-66
2022/01/01 02:23:57;;;;;;;11.33;3.93;;;;;;;;;;5012987;28;20026;-66
2022/01/01 02:26:28;;;;;;;9.20;3.50;;;;;;;;;;5008449;28;20112;-66
2022/01/01 02:28:55;;;;;;;9.83;3.37;;;;;;;;;;5008021;28;20165;-66
2022/01/01 02:31:22;;;;;;;10.20;3.40;;;;;;;;;;5007721;28;20037;-66
2022/01/01 02:33:49;;;;;;;10.03;3.60;;;;;;;;;;5008096;28;20101;-66
2022/01/01 02:36:15;;;;;;;16.10;3.47;;;;;;;;;;5012964;28;20495;-65
2022/01/01 02:38:42;;;;;;;12.33;4.83;;;;;;;;;;5013158;28;20034;-66
2022/01/01 02:41:09;;;;;;;9.60;3.80;;;;;;;;;;5012927;28;20380;-66
2022/01/01 02:43:44;;;;;;;11.00;4.13;;;;;;;;;;5013043;28;20101;-66
2022/01/01 02:46:11;;;;;;;10.57;3.50;;;;;;;;;;5012255;28;20155;-66
2022/01/01 02:48:37;;;;;;;9.90;3.17;;;;;;;;;;5008102;28;20038;-66
2022/01/01 02:51:05;;;;;;;8.53;3.30;;;;;;;;;;5007000;28;20338;-66
2022/01/01 02:53:31;;;;;;;8.53;3.00;;;;;;;;;;5008004;28;20034;-66
2022/01/01 02:55:58;;;;;;;9.53;3.40;;;;;;;;;;5008019;28;20097;-66
2022/01/01 02:58:25;;;;;;;7.27;3.60;;;;;;;;;;5012378;28;20480;-65
2022/01/01 03:00:52;;;;;;;7.93;3.90;;;;;;;;;;5012531;28;20030;-66
2022/01/01 03:03:18;;;;;;;7.43;3.40;;;;;;;;;;5012549;28;20495;-66
2022/01/01 03:05:45;;;;;;;11.70;3.37;;;;;;;;;;5012696;28;20030;-65
2022/01/01 03:08:12;;;;;;;5.93;3.23;;;;;;;;;;5012678;28;20018;-66
2022/01/01 03:10:39;;;;;;;9.57;3.83;;;;;;;;;;5007823;28;20022;-66
2022/01/01 03:13:05;;;;;;;9.50;3.40;;;;;;;;;;5007275;28;20193;-65
2022/01/01 03:15:32;;;;;;;8.00;3.67;;;;;;;;;;5007516;28;20030;-66
2022/01/01 03:18:00;;;;;;;6.13;2.87;;;;;;;;;;5007327;28;20026;-66
2022/01/01 03:20:27;;;;;;;5.93;2.77;;;;;;;;;;5011913;28;20492;-65
2022/01/01 03:22:54;;;;;;;5.80;3.00;;;;;;;;;;5012739;28;20030;-65
2022/01/01 03:25:20;;;;;;;6.57;2.67;;;;;;;;;;5012569;28;20053;-65
2022/01/01 03:27:47;;;;;;;9.13;3.90;;;;;;;;;;5012486;28;20026;-65
2022/01/01 03:30:14;;;;;;;6.23;3.17;;;;;;;;;;5012594;28;20026;-65
2022/01/01 03:32:41;;;;;;;5.90;3.33;;;;;;;;;;5007084;28;20397;-66
2022/01/01 03:35:08;;;;;;;7.93;4.03;;;;;;;;;;5007539;28;20553;-65
2022/01/01 03:37:34;;;;;;;8.00;3.73;;;;;;;;;;5007482;28;20481;-65
2022/01/01 03:40:02;;;;;;;9.33;3.50;;;;;;;;;;5007207;28;20045;-66
2022/01/01 03:42:29;;;;;;;7.20;3.60;;;;;;;;;;5011400;28;20384;-65
2022/01/01 03:44:55;;;;;;;5.30;2.60;;;;;;;;;;5012331;28;20030;-65
2022/01/01 03:47:22;;;;;;;10.27;3.40;;;;;;;;;;5012487;28;20030;-65
2022/01/01 03:49:52;;;;;;;7.00;3.77;;;;;;;;;;5011770;28;20447;-65
2022/01/01 03:52:19;;;;;;;7.33;3.20;;;;;;;;;;5012253;28;20037;-65
2022/01/01 03:54:45;;;;;;;9.60;3.03;;;;;;;;;;5007481;28;20520;-65
2022/01/01 03:57:12;;;;;;;5.73;2.67;;;;;;;;;;5007416;28;20036;-65
2022/01/01 03:59:39;;;;;;;9.23;3.50;;;;;;;;;;5007219;28;20061;-65
2022/01/01 04:02:05;;;;;;;6.30;2.57;;;;;;;;;;5007274;28;20029;-65
2022/01/01 04:04:32;;;;;;;4.87;2.20;;;;;;;;;;5010703;28;20030;-66
2022/01/01 04:07:00;;;;;;;11.47;3.87;;;;;;;;;;5012225;28;20774;-65
2022/01/01 04:09:27;;;;;;;5.40;2.93;;;;;;;;;;5012180;28;20037;-65
2022/01/01 04:11:53;;;;;;;7.37;3.43;;;;;;;;;;5012244;28;20045;-65
2022/01/01 04:14:20;;;;;;;12.03;2.90;;;;;;;;;;5012148;28;20026;-65
2022/01/01 04:16:47;;;;;;;6.17;2.87;;;;;;;;;;5008117;28;20049;-66
2022/01/01 04:19:14;;;;;;;3.47;2.17;;;;;;;;;;5009288;28;20446;-65
2022/01/01 04:21:41;;;;;;;10.83;3.87;;;;;;;;;;5010246;28;20018;-65
2022/01/01 04:24:08;;;;;;;7.97;2.63;;;;;;;;;;5010348;28;20191;-65
2022/01/01 04:26:34;;;;;;;8.40;3.70;;;;;;;;;;5013730;28;20080;-65
2022/01/01 04:29:01;;;;;;;8.77;3.17;;;;;;;;;;5015524;28;20372;-65
2022/01/01 04:31:28;;;;;;;6.20;3.27;;;;;;;;;;5015469;28;20057;-65
2022/01/01 04:33:55;;;;;;;8.87;2.83;;;;;;;;;;5015233;28;20476;-65
2022/01/01 04:36:22;;;;;;;5.70;2.87;;;;;;;;;;5015194;28;20088;-66
2022/01/01 04:38:49;;;;;;;5.70;2.63;;;;;;;;;;5011638;28;20121;-65
2022/01/01 04:41:17;;;;;;;9.03;3.03;;;;;;;;;;5009747;28;20030;-65
2022/01/01 04:43:45;;;;;;;7.40;3.17;;;;;;;;;;5010178;28;20062;-65
2022/01/01 04:46:12;;;;;;;11.57;3.23;;;;;;;;;;5010235;28;20091;-65
2022/01/01 04:48:40;;;;;;;9.40;3.10;;;;;;;;;;5012973;28;20018;-65
2022/01/01 04:51:08;;;;;;;10.10;3.47;;;;;;;;;;5014999;28;20028;-65
2022/01/01 04:53:36;;;;;;;8.40;3.30;;;;;;;;;;5014947;28;20346;-65
2022/01/01 04:56:06;;;;;;;5.17;2.90;;;;;;;;;;5015168;28;20562;-65
2022/01/01 04:58:33;;;;;;;6.70;2.90;;;;;;;;;;5014565;28;20124;-65
2022/01/01 05:01:00;;;;;;;5.87;2.73;;;;;;;;;;5011498;28;20018;-66
2022/01/01 05:03:27;;;;;;;10.13;3.07;;;;;;;;;;5009523;28;20499;-65
2022/01/01 05:05:53;;;;;;;7.17;3.03;;;;;;;;;;5009764;28;20057;-65
2022/01/01 05:08:20;;;;;;;5.17;2.67;;;;;;;;;;5009802;28;20029;-65
2022/01/01 05:10:47;;;;;;;5.57;2.63;;;;;;;;;;5012261;28;20033;-65
2022/01/01 05:13:14;;;;;;;9.23;3.67;;;;;;;;;;5014548;28;20030;-65
2022/01/01 05:15:41;;;;;;;16.23;3.83;;;;;;;;;;5014303;28;20028;-65
2022/01/01 05:18:07;;;;;;;4.73;2.90;;;;;;;;;;5014535;28;20033;-65
2022/01/01 05:20:34;;;;;;;7.47;3.10;;;;;;;;;;5014496;28;20022;-65
2022/01/01 05:23:01;;;;;;;6.53;2.60;;;;;;;;;;5011027;28;20034;-65
2022/01/01 05:25:28;;;;;;;15.30;4.80;;;;;;;;;;5009180;28;20026;-65
2022/01/01 05:27:55;;;;;;;5.80;3.17;;;;;;;;;;5009368;28;20468;-65
2022/01/01 05:30:21;;;;;;;6.63;2.57;;;;;;;;;;5009226;28;20053;-65
2022/01/01 05:32:48;;;;;;;9.43;3.60;;;;;;;;;;5011430;28;20026;-65
2022/01/01 05:35:15;;;;;;;19.80;3.73;;;;;;;;;;5014144;28;20160;-65
2022/01/01 05:37:42;;;;;;;6.13;3.50;;;;;;;;;;5014112;28;20117;-65
2022/01/01 05:40:09;;;;;;;7.27;3.70;;;;;;;;;;5013798;28;20034;-65
2022/01/01 05:42:36;;;;;;;7.97;3.27;;;;;;;;;;5013993;28;20476;-65
2022/01/01 05:45:03;;;;;;;5.33;2.97;;;;;;;;;;5011596;28;20022;-64
2022/01/01 05:47:30;;;;;;;7.87;3.43;;;;;;;;;;5008719;28;20033;-65
2022/01/01 05:49:58;;;;;;;10.13;3.97;;;;;;;;;;5008548;28;20026;-65
2022/01/01 05:52:25;;;;;;;6.83;3.73;;;;;;;;;;5008474;28;20025;-65
2022/01/01 05:54:52;;;;;;;8.33;3.97;;;;;;;;;;5010478;28;20376;-65
2022/01/01 05:57:18;;;;;;;5.97;2.60;;;;;;;;;;5013936;28;20416;-65
2022/01/01 05:59:45;;;;;;;7.40;3.50;;;;;;;;;;5013834;28;20501;-65
2022/01/01 06:02:12;;;;;;;7.63;3.50;;;;;;;;;;5013857;28;20060;-65
2022/01/01 06:04:39;;;;;;;9.60;4.43;;;;;;;;;;5013734;28;20037;-65
2022/01/01 06:07:07;;;;;;;12.90;4.90;;;;;;;;;;5011130;28;20041;-65
2022/01/01 06:09:34;;;;;;;7.70;3.60;;;;;;;;;;5008463;28;20026;-65
2022/01/01 06:12:01;;;;;;;5.27;3.13;;;;;;;;;;5008217;28;20033;-65
2022/01/01 06:14:27;;;;;;;7.13;4.10;;;;;;;;;;5008405;28;20420;-65
2022/01/01 06:16:54;;;;;;;9.03;4.30;;;;;;;;;;5010024;28;20049;-65
2022/01/01 06:19:21;;;;;;;10.63;4.10;;;;;;;;;;5013427;28;20389;-65
2022/01/01 06:21:48;;;;;;;10.13;4.40;;;;;;;;;;5013589;28;20385;-65
2022/01/01 06:24:14;;;;;;;6.87;3.37;;;;;;;;;;5013076;28;20022;-64
2022/01/01 06:26:44;;;;;;;12.27;4.60;;;;;;;;;;5012886;28;20465;-65
2022/01/01 06:29:10;;;;;;;6.77;3.57;;;;;;;;;;5011242;28;20026;-65
2022/01/01 06:31:37;;;;;;;10.03;4.87;;;;;;;;;;5008137;28;20384;-65
2022/01/01 06:34:04;;;;;;;9.97;5.40;;;;;;;;;;5007916;28;20041;-65
2022/01/01 06:36:31;;;;;;;8.33;3.70;;;;;;;;;;5007991;28;20481;-64
2022/01/01 06:38:57;;;;;;;12.00;3.40;;;;;;;;;;5009239;28;20044;-64
2022/01/01 06:41:25;;;;;;;6.23;3.77;;;;;;;;;;5012037;28;20026;-65
2022/01/01 06:43:52;;;;;;;8.80;4.67;;;;;;;;;;5013058;28;20026;-64
2022/01/01 06:46:19;;;;;;;8.93;5.03;;;;;;;;;;5013155;28;20026;-64
2022/01/01 06:48:45;;;;;;;17.03;7.47;;;;;;;;;;5012977;28;20026;-64
2022/01/01 06:51:12;;;;;;;20.83;9.10;;;;;;;;;;5011275;28;20431;-64
2022/01/01 06:53:39;;;;;;;17.30;9.07;;;;;;;;;;5007977;28;20025;-64
2022/01/01 06:56:06;;;;;;;19.67;6.83;;;;;;;;;;5008029;28;20030;-65
2022/01/01 06:58:34;;;;;;;13.33;6.30;;;;;;;;;;5007370;28;20036;-65
2022/01/01 07:01:01;;;;;;;18.00;6.70;;;;;;;;;;5008056;28;20066;-64
2022/01/01 07:03:27;;;;;;;18.07;8.20;;;;;;;;;;5012469;28;20366;-64
2022/01/01 07:05:54;;;;;;;11.87;6.67;;;;;;;;;;5012577;28;20029;-66
2022/01/01 07:08:21;;;;;;;11.47;5.63;;;;;;;;;;5012313;28;20044;-65
2022/01/01 07:10:48;;;;;;;13.70;5.57;;;;;;;;;;5012709;28;20049;-64
2022/01/01 07:13:15;;;;;;;15.43;7.10;;;;;;;;;;5011002;28;20488;-65
2022/01/01 07:15:42;;;;;;;12.13;5.53;;;;;;;;;;5007628;28;20101;-64
2022/01/01 07:18:09;;;;;;;14.37;7.80;;;;;;;;;;5007487;28;20037;-64
2022/01/01 07:20:36;;;;;;;13.30;6.50;;;;;;;;;;5007581;28;20030;-64
2022/01/01 07:23:03;;;;;;;12.50;5.63;;;;;;;;;;5007975;28;20469;-64
2022/01/01 07:25:29;;;;;;;9.03;5.20;;;;;;;;;;5012467;28;20022;-64
2022/01/01 07:27:56;;;;;;;9.97;5.97;;;;;;;;;;5012420;28;20120;-64
2022/01/01 07:30:23;;;;;;;14.13;7.70;;;;;;;;;;5012144;28;20057;-64
2022/01/01 07:32:50;;;;;;;8.83;5.50;;;;;;;;;;5012662;28;20080;-64
2022/01/01 07:35:17;;;;;;;10.73;5.40;;;;;;;;;;5011363;28;20519;-64
2022/01/01 07:37:44;;;;;;;9.43;6.10;;;;;;;;;;5007423;28;20096;-64
2022/01/01 07:40:13;;;;;;;11.83;5.27;;;;;;;;;;5007473;28;20056;-64
2022/01/01 07:42:40;;;;;;;23.80;5.23;;;;;;;;;;5007339;28;20084;-65
2022/01/01 07:45:07;;;;;;;10.07;4.77;;;;;;;;;;5007162;28;20057;-64
2022/01/01 07:47:34;;;;;;;19.67;6.73;;;;;;;;;;5012304;28;20018;-64
2022/01/01 07:50:01;;;;;;;12.33;6.43;;;;;;;;;;5012135;28;20105;-64
2022/01/01 07:52:28;;;;;;;13.53;6.73;;;;;;;;;;5012395;28;20026;-65
2022/01/01 07:54:54;;;;;;;9.00;5.67;;;;;;;;;;5015998;28;20033;-64
2022/01/01 07:57:21;;;;;;;12.33;6.33;;;;;;;;;;5015415;28;20022;-63
2022/01/01 07:59:48;;;;;;;8.73;4.80;;;;;;;;;;5010521;28;20034;-64
2022/01/01 08:02:14;;;;;;;8.30;4.83;;;;;;;;;;5010823;28;20472;-64
2022/01/01 08:04:41;;;;;;;12.07;5.20;;;;;;;;;;5010812;28;20298;-65
2022/01/01 08:07:08;;;;;;;9.37;5.30;;;;;;;;;;5011098;28;20322;-64
2022/01/01 08:09:38;;;;;;;8.93;5.20;;;;;;;;;;5015810;28;20018;-64
2022/01/01 08:12:06;;;;;;;10.60;5.47;;;;;;;;;;5015578;28;20379;-64
2022/01/01 08:14:32;;;;;;;9.40;5.20;;;;;;;;;;5015302;28;20259;-66
2022/01/01 08:17:03;;;;;;;16.93;7.10;;;;;;;;;;5015743;28;20305;-64
2022/01/01 08:19:30;;;;;;;10.77;5.53;;;;;;;;;;5015106;28;20642;-64
2022/01/01 08:21:57;;;;;;;15.53;7.80;;;;;;;;;;5010271;28;20282;-65
2022/01/01 08:24:24;;;;;;;10.93;5.67;;;;;;;;;;5010526;28;20770;-65
2022/01/01 08:26:51;;;;;;;11.60;5.50;;;;;;;;;;5010553;28;20258;-64
2022/01/01 08:29:18;;;;;;;11.70;6.40;;;;;;;;;;5009937;28;20255;-66
2022/01/01 08:31:45;;;;;;;13.60;7.07;;;;;;;;;;5015212;28;20649;-65
2022/01/01 08:34:11;;;;;;;8.37;4.83;;;;;;;;;;5015458;28;20618;-63
2022/01/01 08:36:39;;;;;;;13.10;5.97;;;;;;;;;;5015213;28;20358;-66
2022/01/01 08:39:08;;;;;;;11.40;5.80;;;;;;;;;;5015053;28;20340;-65
2022/01/01 08:41:35;;;;;;;10.53;6.57;;;;;;;;;;5014771;28;20293;-65
2022/01/01 08:44:02;;;;;;;14.87;5.37;;;;;;;;;;5010171;28;20260;-66
2022/01/01 08:46:29;;;;;;;8.97;5.77;;;;;;;;;;5010159;28;20267;-63
2022/01/01 08:48:56;;;;;;;12.47;6.53;;;;;;;;;;5010063;28;20255;-65
2022/01/01 08:51:23;;;;;;;11.27;5.30;;;;;;;;;;5010069;28;20264;-65
2022/01/01 08:53:50;;;;;;;7.63;4.10;;;;;;;;;;5014867;28;20263;-65
2022/01/01 08:56:17;;;;;;;12.73;5.43;;;;;;;;;;5014747;28;20263;-65
2022/01/01 08:58:46;;;;;;;10.17;4.73;;;;;;;;;;5014909;28;20275;-66
2022/01/01 09:01:13;;;;;;;11.17;5.57;;;;;;;;;;5014943;28;20256;-65
2022/01/01 09:03:41;;;;;;;11.37;5.53;;;;;;;;;;5014172;28;20275;-65
2022/01/01 09:06:08;;;;;;;9.57;5.17;;;;;;;;;;5009741;28;20260;-65
2022/01/01 09:08:36;;;;;;;8.00;3.87;;;;;;;;;;5009429;28;20652;-65
2022/01/01 09:11:03;;;;;;;8.93;4.30;;;;;;;;;;5009706;28;20279;-64
2022/01/01 09:13:30;;;;;;;8.87;4.00;;;;;;;;;;5008946;28;20263;-66
2022/01/01 09:15:57;;;;;;;8.97;4.37;;;;;;;;;;5014136;28;20769;-65
2022/01/01 09:18:24;;;;;;;7.77;4.83;;;;;;;;;;5014537;28;20762;-64
2022/01/01 09:20:51;;;;;;;7.10;4.17;;;;;;;;;;5014439;28;20302;-65
2022/01/01 09:23:18;;;;;;;11.57;4.97;;;;;;;;;;5014482;28;20726;-65
2022/01/01 09:25:45;;;;;;;7.03;3.87;;;;;;;;;;5014399;28;20272;-65
2022/01/01 09:28:12;;;;;;;6.03;3.70;;;;;;;;;;5008973;28;20271;-65
2022/01/01 09:30:38;;;;;;;5.77;3.03;;;;;;;;;;5009118;28;20274;-65
2022/01/01 09:33:05;;;;;;;6.33;3.87;;;;;;;;;;5009235;28;20333;-65
2022/01/01 09:35:32;;;;;;;7.03;3.73;;;;;;;;;;5009271;28;20709;-65
2022/01/01 09:37:59;;;;;;;8.20;4.10;;;;;;;;;;5013254;28;20603;-63
2022/01/01 09:40:26;;;;;;;7.37;4.50;;;;;;;;;;5014067;28;20370;-65
2022/01/01 09:42:53;;;;;;;8.13;3.37;;;;;;;;;;5014118;28;20266;-65
2022/01/01 09:45:21;;;;;;;5.07;2.70;;;;;;;;;;5013735;28;20347;-65
2022/01/01 09:47:48;;;;;;;5.47;3.73;;;;;;;;;;5014039;28;20646;-65
2022/01/01 09:50:15;;;;;;;6.13;3.53;;;;;;;;;;5008689;28;20362;-65
2022/01/01 09:52:42;;;;;;;8.10;4.37;;;;;;;;;;5008858;28;20284;-65
2022/01/01 09:55:09;;;;;;;6.50;3.43;;;;;;;;;;5008909;28;20283;-64
2022/01/01 09:57:36;;;;;;;8.97;3.90;;;;;;;;;;5008750;28;20264;-65
2022/01/01 10:00:04;;;;;;;6.40;3.77;;;;;;;;;;5012590;28;20287;-65
2022/01/01 10:02:32;;;;;;;7.10;3.27;;;;;;;;;;5013530;28;20303;-64
2022/01/01 10:05:02;;;;;;;8.40;3.17;;;;;;;;;;5013543;28;20274;-64
2022/01/01 10:07:29;;;;;;;5.80;3.30;;;;;;;;;;5013668;28;20248;-64
2022/01/01 10:09:56;;;;;;;7.70;3.77;;;;;;;;;;5013703;28;20257;-64
2022/01/01 10:12:37;;;;;;;5.57;3.07;;;;;;;;;;5008769;28;20270;-65
2022/01/01 10:15:07;;;;;;;5.63;3.20;;;;;;;;;;5008362;28;20259;-64
2022/01/01 10:17:33;;;;;;;6.37;2.67;;;;;;;;;;5007854;28;20742;-64
2022/01/01 10:20:01;;;;;;;11.77;5.03;;;;;;;;;;5008250;28;20287;-64
2022/01/01 10:22:28;;;;;;;5.17;2.90;;;;;;;;;;5012879;28;20358;-64
2022/01/01 10:27:55;;;;;;;4.03;2.53;;;;;;;;;;5013261;28;20800;-64
2022/01/01 10:30:24;;;;;;;6.57;3.57;;;;;;;;;;5013116;28;20733;-65
2022/01/01 10:33:01;;;;;;;6.90;3.00;;;;;;;;;;5012015;28;20338;-64
2022/01/01 10:35:37;;;;;;;5.17;2.50;;;;;;;;;;5008363;28;20270;-65
2022/01/01 10:38:15;;;;;;;9.57;3.33;;;;;;;;;;5007497;28;20294;-64
2022/01/01 10:40:42;;;;;;;6.20;3.33;;;;;;;;;;5008088;28;20350;-64
2022/01/01 10:43:10;;;;;;;5.37;3.10;;;;;;;;;;5009311;28;20321;-65
2022/01/01 10:45:41;;;;;;;7.03;2.77;;;;;;;;;;5013033;28;20251;-64
2022/01/01 10:48:57;;;;;;;7.27;3.63;;;;;;;;;;5013087;28;20817;-64
2022/01/01 10:50:56;;;;;;;7.03;3.20;;;;;;;;;;5012250;28;20267;-64
2022/01/01 10:53:25;;;;;;;5.03;2.50;;;;;;;;;;5012501;28;20270;-65
2022/01/01 10:55:56;;;;;;;6.80;3.73;;;;;;;;;;5009719;28;20291;-64
2022/01/01 10:58:25;;;;;;;6.17;3.23;;;;;;;;;;5007945;28;20284;-64
2022/01/01 11:00:52;;;;;;;5.80;2.90;;;;;;;;;;5007634;28;20264;-64
2022/01/01 11:03:19;;;;;;;5.73;2.93;;;;;;;;;;5008017;28;20347;-64
2022/01/01 11:05:47;;;;;;;7.20;2.90;;;;;;;;;;5010116;28;20262;-66
2022/01/01 11:08:15;;;;;;;7.50;2.93;;;;;;;;;;5012850;28;20270;-64
2022/01/01 11:10:42;;;;;;;5.60;3.10;;;;;;;;;;5012743;28;20256;-64
2022/01/01 11:13:10;;;;;;;8.03;3.10;;;;;;;;;;5012602;28;20260;-64
2022/01/01 11:15:36;;;;;;;5.60;2.63;;;;;;;;;;5012727;28;20248;-65
2022/01/01 11:18:05;;;;;;;6.23;3.37;;;;;;;;;;5009623;28;20263;-64
2022/01/01 11:20:34;;;;;;;7.77;3.23;;;;;;;;;;5007272;28;20275;-66
2022/01/01 11:23:10;;;;;;;8.13;3.33;;;;;;;;;;5007222;28;20263;-64
2022/01/01 11:25:38;;;;;;;6.53;2.73;;;;;;;;;;5007493;28;20271;-64
2022/01/01 11:28:07;;;;;;;6.40;2.40;;;;;;;;;;5013062;28;20603;-64
2022/01/01 11:30:36;;;;;;;4.90;3.07;;;;;;;;;;5016400;28;20262;-64
2022/01/01 11:33:07;;;;;;;4.30;2.80;;;;;;;;;;5016027;28;20277;-64
2022/01/01 11:35:36;;;;;;;5.00;2.50;;;;;;;;;;5016603;28;20271;-64
2022/01/01 11:38:08;;;;;;;8.13;3.70;;;;;;;;;;5016297;28;20761;-64
2022/01/01 11:40:41;;;;;;;9.17;3.10;;;;;;;;;;5012538;28;20350;-64
2022/01/01 11:43:28;;;;;;;6.53;3.10;;;;;;;;;;5011161;28;20358;-65
2022/01/01 11:45:57;;;;;;;4.67;2.57;;;;;;;;;;5010162;28;20310;-64
2022/01/01 11:48:27;;;;;;;4.67;2.63;;;;;;;;;;5011496;28;20318;-64
2022/01/01 11:50:54;;;;;;;3.93;2.27;;;;;;;;;;5015471;28;20362;-64
2022/01/01 11:53:31;;;;;;;5.20;2.70;;;;;;;;;;5015938;28;20729;-65
2022/01/01 11:56:11;;;;;;;6.63;2.97;;;;;;;;;;5016014;28;20363;-64
2022/01/01 11:58:50;;;;;;;7.03;3.50;;;;;;;;;;5015945;28;20267;-64
2022/01/01 12:01:17;;;;;;;6.60;3.07;;;;;;;;;;5014944;28;20259;-65
2022/01/01 12:03:54;;;;;;;7.67;3.57;;;;;;;;;;5010940;28;20343;-64
2022/01/01 12:06:21;;;;;;;9.60;3.10;;;;;;;;;;5010939;28;20260;-64
2022/01/01 12:08:50;;;;;;;6.33;3.37;;;;;;;;;;5010629;28;20259;-64
2022/01/01 12:11:33;;;;;;;5.77;3.27;;;;;;;;;;5011350;28;20274;-65
2022/01/01 12:14:01;;;;;;;5.07;3.60;;;;;;;;;;5015762;28;20314;-64
2022/01/01 12:16:29;;;;;;;7.03;3.30;;;;;;;;;;5015668;28;20263;-64
2022/01/01 12:19:03;;;;;;;7.67;3.53;;;;;;;;;;5015602;28;20298;-64
2022/01/01 12:21:38;;;;;;;5.93;3.53;;;;;;;;;;5015402;28;20263;-64
2022/01/01 12:24:08;;;;;;;7.10;4.20;;;;;;;;;;5013236;28;20022;-65
2022/01/01 12:26:35;;;;;;;7.20;3.20;;;;;;;;;;5010727;28;20110;-64
2022/01/01 12:29:04;;;;;;;6.70;3.30;;;;;;;;;;5010417;28;20259;-65
2022/01/01 12:31:30;;;;;;;8.17;3.23;;;;;;;;;;5010128;28;20624;-64
2022/01/01 12:34:01;;;;;;;5.33;2.77;;;;;;;;;;5012265;28;20266;-64
2022/01/01 12:36:29;;;;;;;7.70;3.33;;;;;;;;;;5014959;28;20331;-64
2022/01/01 12:38:57;;;;;;;7.60;3.97;;;;;;;;;;5014297;28;20287;-64
2022/01/01 12:41:30;;;;;;;8.30;3.30;;;;;;;;;;5015329;28;20254;-64
2022/01/01 12:43:58;;;;;;;4.90;2.73;;;;;;;;;;5015216;28;20259;-64
2022/01/01 12:46:31;;;;;;;4.77;2.93;;;;;;;;;;5012526;28;20294;-64
2022/01/01 12:48:59;;;;;;;5.03;2.53;;;;;;;;;;5009731;28;20290;-64
2022/01/01 12:51:27;;;;;;;5.57;3.07;;;;;;;;;;5009737;28;20279;-65
2022/01/01 12:53:55;;;;;;;5.20;3.17;;;;;;;;;;5009896;28;20609;-64
2022/01/01 12:56:22;;;;;;;5.40;3.10;;;;;;;;;;5012463;28;20252;-64
2022/01/01 12:58:50;;;;;;;6.13;3.30;;;;;;;;;;5014977;28;20275;-64
2022/01/01 13:01:18;;;;;;;8.97;3.47;;;;;;;;;;5014858;28;20266;-65
2022/01/01 13:03:53;;;;;;;3.83;2.40;;;;;;;;;;5015070;28;20255;-64
2022/01/01 13:06:23;;;;;;;7.63;3.13;;;;;;;;;;5014990;28;20347;-64
2022/01/01 13:08:50;;;;;;;9.77;3.87;;;;;;;;;;5011705;28;20733;-64
2022/01/01 13:11:17;;;;;;;8.43;3.63;;;;;;;;;;5009645;28;20295;-64
2022/01/01 13:13:44;;;;;;;5.63;3.30;;;;;;;;;;5009434;28;20270;-64
2022/01/01 13:16:11;;;;;;;7.90;3.30;;;;;;;;;;5009361;28;20295;-64
2022/01/01 13:18:38;;;;;;;10.27;4.10;;;;;;;;;;5012010;28;20287;-65
2022/01/01 13:21:05;;;;;;;5.80;3.53;;;;;;;;;;5014462;28;20263;-64
2022/01/01 13:23:32;;;;;;;5.60;2.93;;;;;;;;;;5014423;28;20255;-65
2022/01/01 13:25:59;;;;;;;6.00;3.10;;;;;;;;;;5014393;28;20263;-64
2022/01/01 13:28:29;;;;;;;4.93;2.77;;;;;;;;;;5014207;28;20255;-64
2022/01/01 13:30:56;;;;;;;5.80;3.47;;;;;;;;;;5011087;28;20264;-64
2022/01/01 13:33:23;;;;;;;7.07;2.97;;;;;;;;;;5009445;28;20669;-64
2022/01/01 13:35:51;;;;;;;8.70;3.20;;;;;;;;;;5008786;28;20278;-64
2022/01/01 13:38:18;;;;;;;5.30;3.03;;;;;;;;;;5008980;28;20375;-65
2022/01/01 13:40:49;;;;;;;5.53;2.73;;;;;;;;;;5011762;28;20275;-65
2022/01/01 13:43:16;;;;;;;5.03;2.63;;;;;;;;;;5013650;28;20287;-65
2022/01/01 13:45:43;;;;;;;5.27;3.10;;;;;;;;;;5014036;28;20750;-64
2022/01/01 13:48:11;;;;;;;9.60;3.90;;;;;;;;;;5014198;28;20267;-64
2022/01/01 13:50:41;;;;;;;8.47;3.77;;;;;;;;;;5012882;28;20347;-64
2022/01/01 13:53:09;;;;;;;6.10;3.43;;;;;;;;;;5010728;28;20266;-64
2022/01/01 13:55:36;;;;;;;9.43;3.50;;;;;;;;;;5009171;28;20742;-64
2022/01/01 13:58:04;;;;;;;9.10;3.20;;;;;;;;;;5008193;28;20268;-64
2022/01/01 14:00:35;;;;;;;7.33;2.80;;;;;;;;;;5008571;28;20295;-65
2022/01/01 14:03:06;;;;;;;6.33;4.20;;;;;;;;;;5011646;28;20678;-65
2022/01/01 14:05:34;;;;;;;6.30;3.67;;;;;;;;;;5013746;28;20654;-64
2022/01/01 14:08:19;;;;;;;6.40;3.40;;;;;;;;;;5013684;28;20255;-65
2022/01/01 14:10:53;;;;;;;8.55;3.95;;;;;;;;;;5013737;28;20329;-65
2022/01/01 14:13:28;;;;;;;6.97;4.13;;;;;;;;;;5013566;28;20062;-65
2022/01/01 14:15:56;;;;;;;9.43;3.60;;;;;;;;;;5008855;28;20263;-65
2022/01/01 14:18:30;;;;;;;6.27;3.50;;;;;;;;;;5007898;28;20267;-66
2022/01/01 14:20:57;;;;;;;7.50;4.47;;;;;;;;;;5008447;28;20630;-65
2022/01/01 14:23:48;;;;;;;7.93;3.70;;;;;;;;;;5008350;28;20057;-65
2022/01/01 14:26:25;;;;;;;9.00;4.23;;;;;;;;;;5013358;28;20030;-65
2022/01/01 14:28:55;;;;;;;6.27;3.80;;;;;;;;;;5013401;28;20022;-65
2022/01/01 14:31:21;;;;;;;11.03;4.30;;;;;;;;;;5013362;28;20026;-65
2022/01/01 14:33:52;;;;;;;7.63;3.73;;;;;;;;;;5013210;28;20030;-65
2022/01/01 14:36:19;;;;;;;6.57;3.10;;;;;;;;;;5012100;28;20072;-65
2022/01/01 14:38:49;;;;;;;8.20;3.37;;;;;;;;;;5008012;28;20473;-65
2022/01/01 14:41:18;;;;;;;5.37;2.97;;;;;;;;;;5007478;28;20017;-65
2022/01/01 14:43:45;;;;;;;5.57;2.90;;;;;;;;;;5008160;28;20101;-65
2022/01/01 14:46:16;;;;;;;6.20;3.83;;;;;;;;;;5008622;28;20025;-65
2022/01/01 14:48:46;;;;;;;8.03;3.60;;;;;;;;;;5013051;28;20080;-65